Home > Products > Valid Products > TAF

000
FTUS44 KHGX 272320
TAFCXO
TAF
KCXO 272320Z 2800/2824 VRB03KT P6SM SKC
     FM281700 15009KT P6SM SCT025
     FM282300 18005KT P6SM SCT025=



000
FTUS44 KHGX 272320
TAFUTS
TAF
KUTS 272320Z 2800/2824 VRB02KT P6SM SKC
     FM281700 16006KT P6SM SCT025
     FM282300 18004KT P6SM SCT025=



000
FTUS44 KHGX 272320
TAFLBX
TAF
KLBX 272320Z 2800/2824 VRB03KT P6SM SKC
     FM281600 15010KT P6SM SCT025
     FM282300 17010KT P6SM SCT020=



000
FTUS44 KHGX 272320
TAFIAH
TAF
KIAH 272320Z 2800/2906 VRB02KT P6SM SKC
     FM281800 15011KT P6SM SCT025
     FM290100 17006KT P6SM SCT015=



000
FTUS44 KHGX 272320
TAFHOU
TAF
KHOU 272320Z 2800/2824 VRB03KT P6SM SKC
     FM281700 15010KT P6SM SCT025
     FM282300 18005KT P6SM SCT020=



000
FTUS44 KHGX 272320
TAFCXO
TAF
KCXO 272320Z 2800/2824 VRB03KT P6SM SKC
     FM281700 15009KT P6SM SCT025
     FM282300 18005KT P6SM SCT025=



000
FTUS44 KHGX 272320
TAFHOU
TAF
KHOU 272320Z 2800/2824 VRB03KT P6SM SKC
     FM281700 15010KT P6SM SCT025
     FM282300 18005KT P6SM SCT020=



000
FTUS44 KHGX 272320
TAFGLS
TAF
KGLS 272320Z 2800/2824 VRB06KT P6SM SKC
     FM280500 09009KT P6SM SKC
     FM281600 17009KT P6SM SCT020=



000
FTUS44 KHGX 272320
TAFCLL
TAF
KCLL 272320Z 2800/2824 VRB03KT P6SM SKC
     FM281800 15010KT P6SM SCT025
     FM282300 18005KT P6SM SCT025=



000
FTUS44 KHGX 272320
TAFCLL
TAF
KCLL 272320Z 2800/2824 VRB03KT P6SM SKC
     FM281800 15010KT P6SM SCT025
     FM282300 18005KT P6SM SCT025=



000
FTUS44 KHGX 272320
TAFSGR
TAF
KSGR 272320Z 2800/2824 VRB04KT P6SM SKC
     FM281700 15009KT P6SM SCT025
     FM282300 18005KT P6SM SCT020=



000
FTUS44 KHGX 272320
TAFUTS
TAF
KUTS 272320Z 2800/2824 VRB02KT P6SM SKC
     FM281700 16006KT P6SM SCT025
     FM282300 18004KT P6SM SCT025=



000
FTUS44 KHGX 272320
TAFSGR
TAF
KSGR 272320Z 2800/2824 VRB04KT P6SM SKC
     FM281700 15009KT P6SM SCT025
     FM282300 18005KT P6SM SCT020=



000
FTUS44 KHGX 272320
TAFLBX
TAF
KLBX 272320Z 2800/2824 VRB03KT P6SM SKC
     FM281600 15010KT P6SM SCT025
     FM282300 17010KT P6SM SCT020=



000
FTUS44 KHGX 272320
TAFIAH
TAF
KIAH 272320Z 2800/2906 VRB02KT P6SM SKC
     FM281800 15011KT P6SM SCT025
     FM290100 17006KT P6SM SCT015=



000
FTUS44 KHGX 272320
TAFGLS
TAF
KGLS 272320Z 2800/2824 VRB06KT P6SM SKC
     FM280500 09009KT P6SM SKC
     FM281600 17009KT P6SM SCT020=



000
FTUS44 KHGX 272134 AAA
TAFHOU
TAF AMD
KHOU 272134Z 2722/2818 05007KT P6SM SKC
     FM280000 VRB04KT P6SM SKC
     FM281500 15009KT P6SM SCT025=



000
FTUS44 KHGX 272134 AAA
TAFHOU
TAF AMD
KHOU 272134Z 2722/2818 05007KT P6SM SKC
     FM280000 VRB04KT P6SM SKC
     FM281500 15009KT P6SM SCT025=



000
FTUS44 KHGX 272134 AAA
TAFGLS
TAF AMD
KGLS 272134Z 2722/2818 05007KT P6SM SKC
     FM280100 09008KT P6SM SKC
     FM281500 11009KT P6SM SCT025=



000
FTUS44 KHGX 272133 AAA
TAFIAH
TAF AMD
KIAH 272133Z 2722/2824 05005KT P6SM SKC
     FM281500 12007KT P6SM SCT025
     FM282100 15011KT P6SM SCT015=



000
FTUS44 KHGX 272133 AAA
TAFIAH
TAF AMD
KIAH 272133Z 2722/2824 05005KT P6SM SKC
     FM281500 12007KT P6SM SCT025
     FM282100 15011KT P6SM SCT015=



000
FTUS44 KHGX 271720
TAFGLS
TAF
KGLS 271720Z 2718/2818 05013KT P6SM SKC
     FM280100 09008KT P6SM SKC
     FM281500 11009KT P6SM SCT025=



000
FTUS44 KHGX 271720
TAFCXO
TAF
KCXO 271720Z 2718/2818 04007KT P6SM SKC
     FM272300 VRB03KT P6SM SKC
     FM281500 15006KT P6SM SCT025=



000
FTUS44 KHGX 271720
TAFSGR
TAF
KSGR 271720Z 2718/2818 06009KT P6SM SKC
     FM280000 VRB04KT P6SM SKC
     FM281500 15009KT P6SM SCT025=



000
FTUS44 KHGX 271720
TAFHOU
TAF
KHOU 271720Z 2718/2818 05010KT P6SM SKC
     FM280000 VRB04KT P6SM SKC
     FM281500 15009KT P6SM SCT025=



000
FTUS44 KHGX 271720
TAFUTS
TAF
KUTS 271720Z 2718/2818 03007KT P6SM SKC
     FM272300 VRB03KT P6SM SKC
     FM281500 16006KT P6SM SCT025=



000
FTUS44 KHGX 271720
TAFIAH
TAF
KIAH 271720Z 2718/2824 04009KT P6SM SKC
     FM280300 VRB04KT P6SM SKC
     FM281500 12007KT P6SM SCT025
     FM282100 15011KT P6SM SCT015=



000
FTUS44 KHGX 271720
TAFCXO
TAF
KCXO 271720Z 2718/2818 04007KT P6SM SKC
     FM272300 VRB03KT P6SM SKC
     FM281500 15006KT P6SM SCT025=



000
FTUS44 KHGX 271720
TAFCLL
TAF
KCLL 271720Z 2718/2818 04009KT P6SM SKC
     FM272300 VRB05KT P6SM SKC
     FM281500 15008KT P6SM SCT025=



000
FTUS44 KHGX 271720
TAFGLS
TAF
KGLS 271720Z 2718/2818 05013KT P6SM SKC
     FM280100 09008KT P6SM SKC
     FM281500 11009KT P6SM SCT025=



000
FTUS44 KHGX 271720
TAFIAH
TAF
KIAH 271720Z 2718/2824 04009KT P6SM SKC
     FM280300 VRB04KT P6SM SKC
     FM281500 12007KT P6SM SCT025
     FM282100 15011KT P6SM SCT015=



000
FTUS44 KHGX 271720
TAFHOU
TAF
KHOU 271720Z 2718/2818 05010KT P6SM SKC
     FM280000 VRB04KT P6SM SKC
     FM281500 15009KT P6SM SCT025=



000
FTUS44 KHGX 271720
TAFLBX
TAF
KLBX 271720Z 2718/2818 06011KT P6SM SKC
     FM280000 VRB03KT P6SM SKC
     FM281500 15009KT P6SM SCT025=



000
FTUS44 KHGX 271720
TAFLBX
TAF
KLBX 271720Z 2718/2818 06011KT P6SM SKC
     FM280000 VRB03KT P6SM SKC
     FM281500 15009KT P6SM SCT025=



000
FTUS44 KHGX 271720
TAFUTS
TAF
KUTS 271720Z 2718/2818 03007KT P6SM SKC
     FM272300 VRB03KT P6SM SKC
     FM281500 16006KT P6SM SCT025=



000
FTUS44 KHGX 271720
TAFSGR
TAF
KSGR 271720Z 2718/2818 06009KT P6SM SKC
     FM280000 VRB04KT P6SM SKC
     FM281500 15009KT P6SM SCT025=



000
FTUS44 KHGX 271720
TAFCLL
TAF
KCLL 271720Z 2718/2818 04009KT P6SM SKC
     FM272300 VRB05KT P6SM SKC
     FM281500 15008KT P6SM SCT025=



000
FTUS44 KHGX 271502 AAA
TAFIAH
TAF AMD
KIAH 271502Z 2715/2818 04009KT P6SM SKC
     FM280300 VRB04KT P6SM SKC
     FM281600 16008KT P6SM FEW045=



000
FTUS44 KHGX 271502 AAA
TAFIAH
TAF AMD
KIAH 271502Z 2715/2818 04009KT P6SM SKC
     FM280300 VRB04KT P6SM SKC
     FM281600 16008KT P6SM FEW045=



000
FTUS44 KHGX 271502 AAA
TAFHOU
TAF AMD
KHOU 271502Z 2715/2812 04011KT P6SM SKC
     FM272200 07007KT P6SM SKC
     FM280100 VRB04KT P6SM SKC=



000
FTUS44 KHGX 271502 AAA
TAFHOU
TAF AMD
KHOU 271502Z 2715/2812 04011KT P6SM SKC
     FM272200 07007KT P6SM SKC
     FM280100 VRB04KT P6SM SKC=



000
FTUS44 KHGX 271434 AAA
TAFGLS
TAF AMD
KGLS 271434Z 2715/2812 03014KT P6SM SKC
     FM271700 06011KT P6SM SKC
     FM280300 09009KT P6SM SKC=



000
FTUS44 KHGX 271434 AAA
TAFGLS
TAF AMD
KGLS 271434Z 2715/2812 03014KT P6SM SKC
     FM271700 06011KT P6SM SKC
     FM280300 09009KT P6SM SKC=



000
FTUS44 KHGX 271130
TAFCXO
TAF
KCXO 271130Z 2712/2812 04007KT P6SM SKC
     FM272300 VRB05KT P6SM SKC=



000
FTUS44 KHGX 271130
TAFIAH
TAF
KIAH 271130Z 2712/2818 36004KT P6SM SKC
     FM271500 04009KT P6SM SKC
     FM280300 VRB04KT P6SM SKC
     FM281600 16008KT P6SM FEW045=



000
FTUS44 KHGX 271130
TAFLBX
TAF
KLBX 271130Z 2712/2812 02005KT P6SM SKC
     FM271300 03009KT P6SM SKC
     FM272000 08011KT P6SM SKC
     FM280100 09006KT P6SM SKC=



000
FTUS44 KHGX 271130
TAFUTS
TAF
KUTS 271130Z 2712/2812 03007KT P6SM SKC
     FM272300 VRB05KT P6SM SKC=



000
FTUS44 KHGX 271130
TAFHOU
TAF
KHOU 271130Z 2712/2812 03008KT P6SM SKC
     FM272200 07007KT P6SM SKC
     FM280100 VRB04KT P6SM SKC=



000
FTUS44 KHGX 271130
TAFGLS
TAF
KGLS 271130Z 2712/2812 02009KT P6SM SKC
     FM271700 06011KT P6SM SKC
     FM280300 09009KT P6SM SKC=



000
FTUS44 KHGX 271130
TAFCLL
TAF
KCLL 271130Z 2712/2812 02009KT P6SM SKC
     FM271500 04009KT P6SM SKC
     FM272300 VRB05KT P6SM SKC=



000
FTUS44 KHGX 271130
TAFSGR
TAF
KSGR 271130Z 2712/2812 02006KT P6SM SKC
     FM271700 06008KT P6SM SKC
     FM272300 09005KT P6SM SKC=



000
FTUS44 KHGX 271130
TAFIAH
TAF
KIAH 271130Z 2712/2818 36004KT P6SM SKC
     FM271500 04009KT P6SM SKC
     FM280300 VRB04KT P6SM SKC
     FM281600 16008KT P6SM FEW045=



000
FTUS44 KHGX 271130
TAFSGR
TAF
KSGR 271130Z 2712/2812 02006KT P6SM SKC
     FM271700 06008KT P6SM SKC
     FM272300 09005KT P6SM SKC=



000
FTUS44 KHGX 271130
TAFLBX
TAF
KLBX 271130Z 2712/2812 02005KT P6SM SKC
     FM271300 03009KT P6SM SKC
     FM272000 08011KT P6SM SKC
     FM280100 09006KT P6SM SKC=



000
FTUS44 KHGX 271130
TAFCLL
TAF
KCLL 271130Z 2712/2812 02009KT P6SM SKC
     FM271500 04009KT P6SM SKC
     FM272300 VRB05KT P6SM SKC=



000
FTUS44 KHGX 271130
TAFHOU
TAF
KHOU 271130Z 2712/2812 03008KT P6SM SKC
     FM272200 07007KT P6SM SKC
     FM280100 VRB04KT P6SM SKC=



000
FTUS44 KHGX 271130
TAFUTS
TAF
KUTS 271130Z 2712/2812 03007KT P6SM SKC
     FM272300 VRB05KT P6SM SKC=



000
FTUS44 KHGX 271130
TAFCXO
TAF
KCXO 271130Z 2712/2812 04007KT P6SM SKC
     FM272300 VRB05KT P6SM SKC=



000
FTUS44 KHGX 271130
TAFGLS
TAF
KGLS 271130Z 2712/2812 02009KT P6SM SKC
     FM271700 06011KT P6SM SKC
     FM280300 09009KT P6SM SKC=



000
FTUS44 KHGX 270900 AAA
TAFIAH
TAF AMD
KIAH 270900Z 2709/2812 01006KT P6SM SKC
     FM271800 06008KT P6SM SKC
     FM280300 VRB04KT P6SM SKC=



000
FTUS44 KHGX 270900 AAA
TAFIAH
TAF AMD
KIAH 270900Z 2709/2812 01006KT P6SM SKC
     FM271800 06008KT P6SM SKC
     FM280300 VRB04KT P6SM SKC=



000
FTUS44 KHGX 270900 AAA
TAFHOU
TAF AMD
KHOU 270900Z 2709/2806 36006KT P6SM SKC
     FM271300 03008KT P6SM SKC
     FM272200 08007KT P6SM SKC
     FM280100 VRB04KT P6SM SKC=



000
FTUS44 KHGX 270900 AAA
TAFHOU
TAF AMD
KHOU 270900Z 2709/2806 36006KT P6SM SKC
     FM271300 03008KT P6SM SKC
     FM272200 08007KT P6SM SKC
     FM280100 VRB04KT P6SM SKC=



000
FTUS44 KHGX 270858 AAA
TAFLBX
TAF AMD
KLBX 270858Z 2709/2806 VRB03KT P6SM MIFG SKC
     FM271100 36005KT P6SM SKC
     FM271300 03009KT P6SM SKC
     FM272000 08011KT P6SM SKC
     FM280100 09006KT P6SM SKC=



000
FTUS44 KHGX 270858 AAA
TAFLBX
TAF AMD
KLBX 270858Z 2709/2806 VRB03KT P6SM MIFG SKC
     FM271100 36005KT P6SM SKC
     FM271300 03009KT P6SM SKC
     FM272000 08011KT P6SM SKC
     FM280100 09006KT P6SM SKC=



000
FTUS44 KHGX 270520
TAFCLL
TAF
KCLL 270520Z 2706/2806 01004KT P6SM SKC
     FM271500 04009KT P6SM SKC
     FM272300 VRB05KT P6SM SKC=



000
FTUS44 KHGX 270520
TAFHOU
TAF
KHOU 270520Z 2706/2806 VRB04KT P6SM SKC
     FM270800 03008KT P6SM SKC
     FM272200 08007KT P6SM SKC
     FM280100 VRB04KT P6SM SKC=



000
FTUS44 KHGX 270520
TAFCXO
TAF
KCXO 270520Z 2706/2806 01003KT P6SM SKC
     FM271600 05006KT P6SM SKC
     FM272300 VRB05KT P6SM SKC=



000
FTUS44 KHGX 270520
TAFIAH
TAF
KIAH 270520Z 2706/2812 02004KT P6SM SKC
     FM271800 06008KT P6SM SKC
     FM280300 VRB04KT P6SM SKC=



000
FTUS44 KHGX 270520
TAFUTS
TAF
KUTS 270520Z 2706/2806 02004KT P6SM SKC
     FM271500 04007KT P6SM SKC
     FM272300 VRB05KT P6SM SKC=



000
FTUS44 KHGX 270520
TAFGLS
TAF
KGLS 270520Z 2706/2806 23003KT P6SM SKC
     FM270900 03012KT P6SM SKC
     FM271700 06011KT P6SM SKC
     FM280300 09009KT P6SM SKC=



000
FTUS44 KHGX 270520
TAFLBX
TAF
KLBX 270520Z 2706/2806 VRB03KT P6SM SKC
     FM271300 03009KT P6SM SKC
     FM272000 08011KT P6SM SKC
     FM280100 09006KT P6SM SKC=



000
FTUS44 KHGX 270520
TAFLBX
TAF
KLBX 270520Z 2706/2806 VRB03KT P6SM SKC
     FM271300 03009KT P6SM SKC
     FM272000 08011KT P6SM SKC
     FM280100 09006KT P6SM SKC=



000
FTUS44 KHGX 270520
TAFSGR
TAF
KSGR 270520Z 2706/2806 VRB03KT P6SM SKC
     FM271200 03006KT P6SM SKC
     FM271700 06008KT P6SM SKC
     FM272300 09005KT P6SM SKC=



000
FTUS44 KHGX 270520
TAFGLS
TAF
KGLS 270520Z 2706/2806 23003KT P6SM SKC
     FM270900 03012KT P6SM SKC
     FM271700 06011KT P6SM SKC
     FM280300 09009KT P6SM SKC=



000
FTUS44 KHGX 270520
TAFSGR
TAF
KSGR 270520Z 2706/2806 VRB03KT P6SM SKC
     FM271200 03006KT P6SM SKC
     FM271700 06008KT P6SM SKC
     FM272300 09005KT P6SM SKC=



000
FTUS44 KHGX 270325 AAA
TAFHOU
TAF AMD
KHOU 270325Z 2703/2724 VRB06KT P6SM SKC
     FM270800 03008KT P6SM SKC
     FM271700 06009KT P6SM SKC
     FM272300 09008KT P6SM SKC=



000
FTUS44 KHGX 270325 AAA
TAFIAH
TAF AMD
KIAH 270325Z 2703/2806 VRB03KT P6SM SKC
     FM270500 02007KT P6SM SKC
     FM271800 06008KT P6SM SKC
     FM280300 10006KT P6SM SKC=



000
FTUS44 KHGX 270325 AAA
TAFIAH
TAF AMD
KIAH 270325Z 2703/2806 VRB03KT P6SM SKC
     FM270500 02007KT P6SM SKC
     FM271800 06008KT P6SM SKC
     FM280300 10006KT P6SM SKC=



000
FTUS44 KHGX 262321
TAFLBX
TAF
KLBX 262321Z 2700/2724 VRB06KT P6SM SKC
     FM270600 35008KT P6SM SKC
     FM270900 03010KT P6SM SKC
     FM272000 08011KT P6SM SKC=



000
FTUS44 KHGX 262321
TAFUTS
TAF
KUTS 262321Z 2700/2724 VRB05KT P6SM SKC
     FM270200 01006KT P6SM SKC
     FM271500 04008KT P6SM SKC
     FM272200 08005KT P6SM SKC=



000
FTUS44 KHGX 262321
TAFIAH
TAF
KIAH 262321Z 2700/2806 VRB06KT P6SM SKC
     FM270500 02007KT P6SM SKC
     FM271800 06008KT P6SM SKC
     FM280300 10006KT P6SM SKC=



000
FTUS44 KHGX 262321
TAFHOU
TAF
KHOU 262321Z 2700/2724 23008KT P6SM SKC
     FM270100 VRB06KT P6SM SKC
     FM270800 03008KT P6SM SKC
     FM271700 06009KT P6SM SKC
     FM272300 09008KT P6SM SKC=



000
FTUS44 KHGX 262321
TAFHOU
TAF
KHOU 262321Z 2700/2724 23008KT P6SM SKC
     FM270100 VRB06KT P6SM SKC
     FM270800 03008KT P6SM SKC
     FM271700 06009KT P6SM SKC
     FM272300 09008KT P6SM SKC=



000
FTUS44 KHGX 262321
TAFUTS
TAF
KUTS 262321Z 2700/2724 VRB05KT P6SM SKC
     FM270200 01006KT P6SM SKC
     FM271500 04008KT P6SM SKC
     FM272200 08005KT P6SM SKC=



000
FTUS44 KHGX 262321
TAFSGR
TAF
KSGR 262321Z 2700/2724 23006KT P6SM SKC
     FM270100 VRB06KT P6SM SKC
     FM270800 03007KT P6SM SKC
     FM271700 06008KT P6SM SKC
     FM272300 09006KT P6SM SKC=



000
FTUS44 KHGX 262321
TAFCXO
TAF
KCXO 262321Z 2700/2724 VRB05KT P6SM SKC
     FM270500 02006KT P6SM SKC
     FM271700 06006KT P6SM SKC
     FM272300 09006KT P6SM SKC=



000
FTUS44 KHGX 262321
TAFCXO
TAF
KCXO 262321Z 2700/2724 VRB05KT P6SM SKC
     FM270500 02006KT P6SM SKC
     FM271700 06006KT P6SM SKC
     FM272300 09006KT P6SM SKC=



000
FTUS44 KHGX 262321
TAFCLL
TAF
KCLL 262321Z 2700/2724 34007KT P6SM SKC
     FM270200 01006KT P6SM SKC
     FM271500 04009KT P6SM SKC
     FM272200 08006KT P6SM SKC=



000
FTUS44 KHGX 262321
TAFGLS
TAF
KGLS 262321Z 2700/2724 22012KT P6SM SKC
     FM270200 VRB06KT P6SM SKC
     FM270900 03013KT P6SM SKC
     FM271700 06011KT P6SM SKC=



000
FTUS44 KHGX 262321
TAFIAH
TAF
KIAH 262321Z 2700/2806 VRB06KT P6SM SKC
     FM270500 02007KT P6SM SKC
     FM271800 06008KT P6SM SKC
     FM280300 10006KT P6SM SKC=



000
FTUS44 KHGX 262321
TAFLBX
TAF
KLBX 262321Z 2700/2724 VRB06KT P6SM SKC
     FM270600 35008KT P6SM SKC
     FM270900 03010KT P6SM SKC
     FM272000 08011KT P6SM SKC=



000
FTUS44 KHGX 262321
TAFSGR
TAF
KSGR 262321Z 2700/2724 23006KT P6SM SKC
     FM270100 VRB06KT P6SM SKC
     FM270800 03007KT P6SM SKC
     FM271700 06008KT P6SM SKC
     FM272300 09006KT P6SM SKC=



000
FTUS44 KHGX 262321
TAFGLS
TAF
KGLS 262321Z 2700/2724 22012KT P6SM SKC
     FM270200 VRB06KT P6SM SKC
     FM270900 03013KT P6SM SKC
     FM271700 06011KT P6SM SKC=



000
FTUS44 KHGX 262321
TAFCLL
TAF
KCLL 262321Z 2700/2724 34007KT P6SM SKC
     FM270200 01006KT P6SM SKC
     FM271500 04009KT P6SM SKC
     FM272200 08006KT P6SM SKC=



000
FTUS44 KHGX 262103 AAA
TAFUTS
TAF AMD
KUTS 262103Z 2621/2718 24012KT P6SM SKC
     FM262200 VRB05KT P6SM SKC
     FM270100 01005KT P6SM SKC
     FM271500 04006KT P6SM SKC=



000
FTUS44 KHGX 262103 AAA
TAFUTS
TAF AMD
KUTS 262103Z 2621/2718 24012KT P6SM SKC
     FM262200 VRB05KT P6SM SKC
     FM270100 01005KT P6SM SKC
     FM271500 04006KT P6SM SKC=



000
FTUS44 KHGX 262103 AAA
TAFGLS
TAF AMD
KGLS 262103Z 2621/2718 23014G24KT P6SM SKC
     FM270200 VRB06KT P6SM SKC
     FM270800 36009KT P6SM SKC
     FM271200 03014KT P6SM SKC=



000
FTUS44 KHGX 262103 AAA
TAFGLS
TAF AMD
KGLS 262103Z 2621/2718 23014G24KT P6SM SKC
     FM270200 VRB06KT P6SM SKC
     FM270800 36009KT P6SM SKC
     FM271200 03014KT P6SM SKC=



000
FTUS44 KHGX 262102 AAA
TAFHOU
TAF AMD
KHOU 262102Z 2621/2718 24013KT P6SM SKC
     FM262300 VRB06KT P6SM SKC
     FM270500 35006KT P6SM SKC
     FM271300 03010KT P6SM SKC=



000
FTUS44 KHGX 262102 AAA
TAFIAH
TAF AMD
KIAH 262102Z 2621/2724 24012KT P6SM SKC
     FM270100 35006KT P6SM SKC
     FM271400 03009KT P6SM SKC
     FM272300 07004KT P6SM SKC=



000
FTUS44 KHGX 262102 AAA
TAFIAH
TAF AMD
KIAH 262102Z 2621/2724 24012KT P6SM SKC
     FM270100 35006KT P6SM SKC
     FM271400 03009KT P6SM SKC
     FM272300 07004KT P6SM SKC=



000
FTUS44 KHGX 262102 AAA
TAFSGR
TAF AMD
KSGR 262102Z 2621/2718 22012KT P6SM SKC
     FM262300 VRB03KT P6SM SKC
     FM270400 35005KT P6SM SKC
     FM271300 03009KT P6SM SKC=



000
FTUS44 KHGX 262102 AAA
TAFSGR
TAF AMD
KSGR 262102Z 2621/2718 22012KT P6SM SKC
     FM262300 VRB03KT P6SM SKC
     FM270400 35005KT P6SM SKC
     FM271300 03009KT P6SM SKC=



000
FTUS44 KHGX 262102 AAA
TAFHOU
TAF AMD
KHOU 262102Z 2621/2718 24013KT P6SM SKC
     FM262300 VRB06KT P6SM SKC
     FM270500 35006KT P6SM SKC
     FM271300 03010KT P6SM SKC=



000
FTUS44 KHGX 261720
TAFSGR
TAF
KSGR 261720Z 2618/2718 22010KT P6SM SKC
     FM262300 VRB03KT P6SM SKC
     FM270400 35005KT P6SM SKC
     FM271300 03009KT P6SM SKC=



000
FTUS44 KHGX 261720
TAFLBX
TAF
KLBX 261720Z 2618/2718 23012KT P6SM SKC
     FM270000 VRB03KT P6SM SKC
     FM270500 34006KT P6SM SKC
     FM271300 03012KT P6SM SKC=



000
FTUS44 KHGX 261720
TAFGLS
TAF
KGLS 261720Z 2618/2718 23014KT P6SM SKC
     FM270200 VRB06KT P6SM SKC
     FM270800 36009KT P6SM SKC
     FM271200 03014KT P6SM SKC=



000
FTUS44 KHGX 261720
TAFHOU
TAF
KHOU 261720Z 2618/2718 23013KT P6SM SKC
     FM262300 VRB06KT P6SM SKC
     FM270500 35006KT P6SM SKC
     FM271300 03010KT P6SM SKC=



000
FTUS44 KHGX 261720
TAFCLL
TAF
KCLL 261720Z 2618/2718 24015KT P6SM SKC
     FM262200 VRB06KT P6SM SKC
     FM270200 01006KT P6SM SKC
     FM271500 04007KT P6SM SKC=



000
FTUS44 KHGX 261720
TAFCXO
TAF
KCXO 261720Z 2618/2718 23011KT P6SM SKC
     FM262300 VRB05KT P6SM SKC
     FM270400 36005KT P6SM SKC
     FM271500 02006KT P6SM SKC=



000
FTUS44 KHGX 261720
TAFUTS
TAF
KUTS 261720Z 2618/2718 23013KT P6SM SKC
     FM262200 VRB05KT P6SM SKC
     FM270100 01005KT P6SM SKC
     FM271500 04006KT P6SM SKC=



000
FTUS44 KHGX 261720
TAFCLL
TAF
KCLL 261720Z 2618/2718 24015KT P6SM SKC
     FM262200 VRB06KT P6SM SKC
     FM270200 01006KT P6SM SKC
     FM271500 04007KT P6SM SKC=



000
FTUS44 KHGX 261720
TAFUTS
TAF
KUTS 261720Z 2618/2718 23013KT P6SM SKC
     FM262200 VRB05KT P6SM SKC
     FM270100 01005KT P6SM SKC
     FM271500 04006KT P6SM SKC=



000
FTUS44 KHGX 261720
TAFIAH
TAF
KIAH 261720Z 2618/2724 23012KT P6SM SKC
     FM270100 35006KT P6SM SKC
     FM271400 03009KT P6SM SKC
     FM272300 07004KT P6SM SKC=



000
FTUS44 KHGX 261720
TAFGLS
TAF
KGLS 261720Z 2618/2718 23014KT P6SM SKC
     FM270200 VRB06KT P6SM SKC
     FM270800 36009KT P6SM SKC
     FM271200 03014KT P6SM SKC=



000
FTUS44 KHGX 261720
TAFSGR
TAF
KSGR 261720Z 2618/2718 22010KT P6SM SKC
     FM262300 VRB03KT P6SM SKC
     FM270400 35005KT P6SM SKC
     FM271300 03009KT P6SM SKC=



000
FTUS44 KHGX 261720
TAFIAH
TAF
KIAH 261720Z 2618/2724 23012KT P6SM SKC
     FM270100 35006KT P6SM SKC
     FM271400 03009KT P6SM SKC
     FM272300 07004KT P6SM SKC=



000
FTUS44 KHGX 261720
TAFHOU
TAF
KHOU 261720Z 2618/2718 23013KT P6SM SKC
     FM262300 VRB06KT P6SM SKC
     FM270500 35006KT P6SM SKC
     FM271300 03010KT P6SM SKC=



000
FTUS44 KHGX 261720
TAFCXO
TAF
KCXO 261720Z 2618/2718 23011KT P6SM SKC
     FM262300 VRB05KT P6SM SKC
     FM270400 36005KT P6SM SKC
     FM271500 02006KT P6SM SKC=



000
FTUS44 KHGX 261720
TAFLBX
TAF
KLBX 261720Z 2618/2718 23012KT P6SM SKC
     FM270000 VRB03KT P6SM SKC
     FM270500 34006KT P6SM SKC
     FM271300 03012KT P6SM SKC=



000
FTUS44 KHGX 261559 AAA
TAFUTS
TAF AMD
KUTS 261559Z 2616/2712 23013KT P6SM SKC
     FM262200 VRB05KT P6SM SKC
     FM270100 01005KT P6SM SKC=



000
FTUS44 KHGX 261559 AAA
TAFUTS
TAF AMD
KUTS 261559Z 2616/2712 23013KT P6SM SKC
     FM262200 VRB05KT P6SM SKC
     FM270100 01005KT P6SM SKC=



000
FTUS44 KHGX 261558 AAA
TAFGLS
TAF AMD
KGLS 261558Z 2616/2712 23013KT P6SM SKC
     FM262000 24012KT P6SM SKC
     FM270200 VRB06KT P6SM SKC
     FM270800 35009KT P6SM SKC
     FM271100 02014KT P6SM SKC=



000
FTUS44 KHGX 261558 AAA
TAFGLS
TAF AMD
KGLS 261558Z 2616/2712 23013KT P6SM SKC
     FM262000 24012KT P6SM SKC
     FM270200 VRB06KT P6SM SKC
     FM270800 35009KT P6SM SKC
     FM271100 02014KT P6SM SKC=



000
FTUS44 KHGX 261502 AAA
TAFSGR
TAF AMD
KSGR 261502Z 2615/2712 22010KT P6SM SKC
     FM262300 VRB03KT P6SM SKC
     FM270300 35005KT P6SM SKC=



000
FTUS44 KHGX 261502 AAA
TAFSGR
TAF AMD
KSGR 261502Z 2615/2712 22010KT P6SM SKC
     FM262300 VRB03KT P6SM SKC
     FM270300 35005KT P6SM SKC=



000
FTUS44 KHGX 261502 AAA
TAFIAH
TAF AMD
KIAH 261502Z 2615/2718 23010KT P6SM SKC
     FM270100 35005KT P6SM SKC
     FM271400 03009KT P6SM SKC=



000
FTUS44 KHGX 261502 AAA
TAFIAH
TAF AMD
KIAH 261502Z 2615/2718 23010KT P6SM SKC
     FM270100 35005KT P6SM SKC
     FM271400 03009KT P6SM SKC=



000
FTUS44 KHGX 261502 AAA
TAFHOU
TAF AMD
KHOU 261502Z 2615/2712 23011KT P6SM SKC
     FM262300 VRB03KT P6SM SKC
     FM270400 35005KT P6SM SKC=



000
FTUS44 KHGX 261502 AAA
TAFHOU
TAF AMD
KHOU 261502Z 2615/2712 23011KT P6SM SKC
     FM262300 VRB03KT P6SM SKC
     FM270400 35005KT P6SM SKC=



000
FTUS44 KHGX 261120
TAFUTS
TAF
KUTS 261120Z 2612/2712 20006KT P6SM SKC
     FM261600 24011KT P6SM SKC
     FM262200 VRB05KT P6SM SKC
     FM270100 01005KT P6SM SKC=



000
FTUS44 KHGX 261120
TAFSGR
TAF
KSGR 261120Z 2612/2712 22003KT P6SM SKC
     FM261500 22011G17KT P6SM SKC
     FM262300 VRB03KT P6SM SKC
     FM270300 35005KT P6SM SKC=



000
FTUS44 KHGX 261120
TAFCLL
TAF
KCLL 261120Z 2612/2712 20005KT P6SM SKC
     FM261500 25010G16KT P6SM SKC
     FM262200 VRB05KT P6SM SKC
     FM270100 01005KT P6SM SKC=



000
FTUS44 KHGX 261120
TAFLBX
TAF
KLBX 261120Z 2612/2712 00000KT P6SM SKC
     FM261500 22011KT P6SM SKC
     FM262300 VRB03KT P6SM SKC
     FM270500 34006KT P6SM SKC=



000
FTUS44 KHGX 261120
TAFHOU
TAF
KHOU 261120Z 2612/2712 21004KT P6SM SKC
     FM261500 23008G15KT P6SM SKC
     FM262300 VRB03KT P6SM SKC
     FM270400 35005KT P6SM SKC=



000
FTUS44 KHGX 261120
TAFIAH
TAF
KIAH 261120Z 2612/2718 20003KT P6SM SKC
     FM261500 23008G15KT P6SM SKC
     FM270100 35005KT P6SM SKC
     FM271400 03009KT P6SM SKC=



000
FTUS44 KHGX 261120
TAFCXO
TAF
KCXO 261120Z 2612/2712 00000KT P6SM SKC
     FM261500 23009G14KT P6SM SKC
     FM262300 VRB04KT P6SM SKC
     FM270100 36005KT P6SM SKC=



000
FTUS44 KHGX 261120
TAFGLS
TAF
KGLS 261120Z 2612/2712 21009KT P6SM SKC
     FM262000 24012KT P6SM SKC
     FM270200 VRB06KT P6SM SKC
     FM270800 35009KT P6SM SKC
     FM271100 02014KT P6SM SKC=



000
FTUS44 KHGX 261120
TAFCLL
TAF
KCLL 261120Z 2612/2712 20005KT P6SM SKC
     FM261500 25010G16KT P6SM SKC
     FM262200 VRB05KT P6SM SKC
     FM270100 01005KT P6SM SKC=



000
FTUS44 KHGX 261120
TAFHOU
TAF
KHOU 261120Z 2612/2712 21004KT P6SM SKC
     FM261500 23008G15KT P6SM SKC
     FM262300 VRB03KT P6SM SKC
     FM270400 35005KT P6SM SKC=



000
FTUS44 KHGX 261120
TAFLBX
TAF
KLBX 261120Z 2612/2712 00000KT P6SM SKC
     FM261500 22011KT P6SM SKC
     FM262300 VRB03KT P6SM SKC
     FM270500 34006KT P6SM SKC=



000
FTUS44 KHGX 261120
TAFCXO
TAF
KCXO 261120Z 2612/2712 00000KT P6SM SKC
     FM261500 23009G14KT P6SM SKC
     FM262300 VRB04KT P6SM SKC
     FM270100 36005KT P6SM SKC=



000
FTUS44 KHGX 261120
TAFIAH
TAF
KIAH 261120Z 2612/2718 20003KT P6SM SKC
     FM261500 23008G15KT P6SM SKC
     FM270100 35005KT P6SM SKC
     FM271400 03009KT P6SM SKC=



000
FTUS44 KHGX 261120
TAFGLS
TAF
KGLS 261120Z 2612/2712 21009KT P6SM SKC
     FM262000 24012KT P6SM SKC
     FM270200 VRB06KT P6SM SKC
     FM270800 35009KT P6SM SKC
     FM271100 02014KT P6SM SKC=



000
FTUS44 KHGX 261120
TAFUTS
TAF
KUTS 261120Z 2612/2712 20006KT P6SM SKC
     FM261600 24011KT P6SM SKC
     FM262200 VRB05KT P6SM SKC
     FM270100 01005KT P6SM SKC=



000
FTUS44 KHGX 261120
TAFSGR
TAF
KSGR 261120Z 2612/2712 22003KT P6SM SKC
     FM261500 22011G17KT P6SM SKC
     FM262300 VRB03KT P6SM SKC
     FM270300 35005KT P6SM SKC=



000
FTUS44 KHGX 260936 AAA
TAFIAH
TAF AMD
KIAH 260936Z 2610/2712 19004KT P6SM SKC
     FM261500 23009KT P6SM SKC
     FM262300 VRB03KT P6SM SKC
     FM270300 35005KT P6SM SKC=



000
FTUS44 KHGX 260936 AAA
TAFHOU
TAF AMD
KHOU 260936Z 2610/2706 21003KT P6SM SKC
     FM261500 23010KT P6SM SKC
     FM262300 VRB03KT P6SM SKC
     FM270330 35005KT P6SM SKC=



000
FTUS44 KHGX 260936 AAA
TAFHOU
TAF AMD
KHOU 260936Z 2610/2706 21003KT P6SM SKC
     FM261500 23010KT P6SM SKC
     FM262300 VRB03KT P6SM SKC
     FM270330 35005KT P6SM SKC=



000
FTUS44 KHGX 260936 AAA
TAFIAH
TAF AMD
KIAH 260936Z 2610/2712 19004KT P6SM SKC
     FM261500 23009KT P6SM SKC
     FM262300 VRB03KT P6SM SKC
     FM270300 35005KT P6SM SKC=



000
FTUS44 KHGX 260520
TAFIAH
TAF
KIAH 260520Z 2606/2712 19006KT P6SM SKC
     FM261500 23009KT P6SM SKC
     FM262300 VRB03KT P6SM SKC
     FM270300 35005KT P6SM SKC=



000
FTUS44 KHGX 260520
TAFCXO
TAF
KCXO 260520Z 2606/2706 VRB03KT P6SM SKC
     FM261500 23010KT P6SM SKC
     FM262300 VRB04KT P6SM SKC
     FM270100 35005KT P6SM SKC=



000
FTUS44 KHGX 260520
TAFHOU
TAF
KHOU 260520Z 2606/2706 19007KT P6SM SKC
     FM261500 23010KT P6SM SKC
     FM262300 VRB03KT P6SM SKC
     FM270330 35005KT P6SM SKC=



000
FTUS44 KHGX 260520
TAFUTS
TAF
KUTS 260520Z 2606/2706 18005KT P6SM SKC
     FM261600 24011KT P6SM SKC
     FM262200 VRB05KT P6SM SKC
     FM270100 01005KT P6SM SKC=



000
FTUS44 KHGX 260520
TAFSGR
TAF
KSGR 260520Z 2606/2706 19005KT P6SM SKC
     FM261500 22010KT P6SM SKC
     FM262300 VRB03KT P6SM SKC
     FM270300 35005KT P6SM SKC=



000
FTUS44 KHGX 260520
TAFIAH
TAF
KIAH 260520Z 2606/2712 19006KT P6SM SKC
     FM261500 23009KT P6SM SKC
     FM262300 VRB03KT P6SM SKC
     FM270300 35005KT P6SM SKC=



000
FTUS44 KHGX 260520
TAFHOU
TAF
KHOU 260520Z 2606/2706 19007KT P6SM SKC
     FM261500 23010KT P6SM SKC
     FM262300 VRB03KT P6SM SKC
     FM270330 35005KT P6SM SKC=



000
FTUS44 KHGX 260520
TAFLBX
TAF
KLBX 260520Z 2606/2706 19005KT P6SM SKC
     FM261500 22010KT P6SM SKC
     FM262300 VRB03KT P6SM SKC
     FM270500 34005KT P6SM SKC=



000
FTUS44 KHGX 260520
TAFCLL
TAF
KCLL 260520Z 2606/2706 19005KT P6SM SKC
     FM261500 25011KT P6SM SKC
     FM262200 VRB05KT P6SM SKC
     FM270100 01005KT P6SM SKC=



000
FTUS44 KHGX 260520
TAFGLS
TAF
KGLS 260520Z 2606/2706 20006KT P6SM SKC
     FM260900 21009KT P6SM SKC
     FM262000 24012KT P6SM SKC
     FM270200 VRB06KT P6SM SKC=



000
FTUS44 KHGX 260520
TAFUTS
TAF
KUTS 260520Z 2606/2706 18005KT P6SM SKC
     FM261600 24011KT P6SM SKC
     FM262200 VRB05KT P6SM SKC
     FM270100 01005KT P6SM SKC=



000
FTUS44 KHGX 260520
TAFCLL
TAF
KCLL 260520Z 2606/2706 19005KT P6SM SKC
     FM261500 25011KT P6SM SKC
     FM262200 VRB05KT P6SM SKC
     FM270100 01005KT P6SM SKC=



000
FTUS44 KHGX 260520
TAFGLS
TAF
KGLS 260520Z 2606/2706 20006KT P6SM SKC
     FM260900 21009KT P6SM SKC
     FM262000 24012KT P6SM SKC
     FM270200 VRB06KT P6SM SKC=



000
FTUS44 KHGX 260520
TAFSGR
TAF
KSGR 260520Z 2606/2706 19005KT P6SM SKC
     FM261500 22010KT P6SM SKC
     FM262300 VRB03KT P6SM SKC
     FM270300 35005KT P6SM SKC=



000
FTUS44 KHGX 260520
TAFCXO
TAF
KCXO 260520Z 2606/2706 VRB03KT P6SM SKC
     FM261500 23010KT P6SM SKC
     FM262300 VRB04KT P6SM SKC
     FM270100 35005KT P6SM SKC=



000
FTUS44 KHGX 260520
TAFLBX
TAF
KLBX 260520Z 2606/2706 19005KT P6SM SKC
     FM261500 22010KT P6SM SKC
     FM262300 VRB03KT P6SM SKC
     FM270500 34005KT P6SM SKC=



000
FTUS44 KHGX 260258 AAA
TAFIAH
TAF AMD
KIAH 260258Z 2603/2706 VRB02KT P6SM SKC
     FM261500 23009KT P6SM SKC
     FM262300 VRB03KT P6SM SKC=



000
FTUS44 KHGX 260258 AAA
TAFHOU
TAF AMD
KHOU 260258Z 2603/2624 VRB05KT P6SM SKC
     FM261500 23010KT P6SM SKC
     FM262300 VRB03KT P6SM SKC=



000
FTUS44 KHGX 252326
TAFCXO
TAF
KCXO 252326Z 2600/2624 VRB03KT P6SM SKC
     FM261500 23010KT P6SM SKC
     FM262300 VRB04KT P6SM SKC=



000
FTUS44 KHGX 252326
TAFSGR
TAF
KSGR 252326Z 2600/2624 VRB03KT P6SM SKC
     FM261500 23010KT P6SM SKC
     FM262300 VRB03KT P6SM SKC=



000
FTUS44 KHGX 252326
TAFLBX
TAF
KLBX 252326Z 2600/2624 VRB02KT P6SM SKC
     FM261500 23010KT P6SM SKC
     FM262300 VRB03KT P6SM SKC=



000
FTUS44 KHGX 252326
TAFIAH
TAF
KIAH 252326Z 2600/2706 VRB03KT P6SM SKC
     FM261500 23009KT P6SM SKC
     FM262300 VRB03KT P6SM SKC=



000
FTUS44 KHGX 252326
TAFUTS
TAF
KUTS 252326Z 2600/2624 VRB03KT P6SM SKC
     FM261600 24011KT P6SM SKC=



000
FTUS44 KHGX 252326
TAFHOU
TAF
KHOU 252326Z 2600/2624 VRB04KT P6SM SKC
     FM261500 23010KT P6SM SKC
     FM262300 VRB03KT P6SM SKC=



000
FTUS44 KHGX 252326
TAFCLL
TAF
KCLL 252326Z 2600/2624 VRB03KT P6SM SKC
     FM261500 25011KT P6SM SKC
     FM262300 VRB05KT P6SM SKC=



000
FTUS44 KHGX 252326
TAFGLS
TAF
KGLS 252326Z 2600/2624 VRB05KT P6SM SKC
     FM260900 21007KT P6SM SKC
     FM262000 24012KT P6SM SKC=



000
FTUS44 KHGX 252326
TAFCXO
TAF
KCXO 252326Z 2600/2624 VRB03KT P6SM SKC
     FM261500 23010KT P6SM SKC
     FM262300 VRB04KT P6SM SKC=



000
FTUS44 KHGX 252326
TAFCLL
TAF
KCLL 252326Z 2600/2624 VRB03KT P6SM SKC
     FM261500 25011KT P6SM SKC
     FM262300 VRB05KT P6SM SKC=



000
FTUS44 KHGX 252326
TAFLBX
TAF
KLBX 252326Z 2600/2624 VRB02KT P6SM SKC
     FM261500 23010KT P6SM SKC
     FM262300 VRB03KT P6SM SKC=



000
FTUS44 KHGX 252326
TAFUTS
TAF
KUTS 252326Z 2600/2624 VRB03KT P6SM SKC
     FM261600 24011KT P6SM SKC=



000
FTUS44 KHGX 252326
TAFSGR
TAF
KSGR 252326Z 2600/2624 VRB03KT P6SM SKC
     FM261500 23010KT P6SM SKC
     FM262300 VRB03KT P6SM SKC=



000
FTUS44 KHGX 252326
TAFGLS
TAF
KGLS 252326Z 2600/2624 VRB05KT P6SM SKC
     FM260900 21007KT P6SM SKC
     FM262000 24012KT P6SM SKC=



000
FTUS44 KHGX 252326
TAFHOU
TAF
KHOU 252326Z 2600/2624 VRB04KT P6SM SKC
     FM261500 23010KT P6SM SKC
     FM262300 VRB03KT P6SM SKC=



000
FTUS44 KHGX 252326
TAFIAH
TAF
KIAH 252326Z 2600/2706 VRB03KT P6SM SKC
     FM261500 23009KT P6SM SKC
     FM262300 VRB03KT P6SM SKC=



000
FTUS44 KHGX 252104 AAA
TAFIAH
TAF AMD
KIAH 252104Z 2521/2624 33008KT P6SM FEW080
     FM260000 VRB03KT P6SM SKC
     FM261500 23009KT P6SM SKC
     FM262300 VRB03KT P6SM SKC=



000
FTUS44 KHGX 252104 AAA
TAFHOU
TAF AMD
KHOU 252104Z 2521/2618 35009KT P6SM FEW250
     FM260000 VRB03KT P6SM SKC
     FM261500 23010KT P6SM SKC=



000
FTUS44 KHGX 252104 AAA
TAFIAH
TAF AMD
KIAH 252104Z 2521/2624 33008KT P6SM FEW080
     FM260000 VRB03KT P6SM SKC
     FM261500 23009KT P6SM SKC
     FM262300 VRB03KT P6SM SKC=



000
FTUS44 KHGX 252104 AAA
TAFUTS
TAF AMD
KUTS 252104Z 2521/2618 31008KT P6SM SKC
     FM252200 27004KT P6SM SKC
     FM261500 23011KT P6SM SKC=



000
FTUS44 KHGX 252104 AAA
TAFHOU
TAF AMD
KHOU 252104Z 2521/2618 35009KT P6SM FEW250
     FM260000 VRB03KT P6SM SKC
     FM261500 23010KT P6SM SKC=



000
FTUS44 KHGX 251720
TAFLBX
TAF
KLBX 251720Z 2518/2618 36008KT P6SM OVC150
     FM252300 00000KT P6SM SKC
     FM261500 23010KT P6SM SKC=



000
FTUS44 KHGX 251720
TAFUTS
TAF
KUTS 251720Z 2518/2618 33004KT P6SM SKC
     FM252200 27004KT P6SM SKC
     FM261500 23011KT P6SM SKC=



000
FTUS44 KHGX 251720
TAFUTS
TAF
KUTS 251720Z 2518/2618 33004KT P6SM SKC
     FM252200 27004KT P6SM SKC
     FM261500 23011KT P6SM SKC=



000
FTUS44 KHGX 251720
TAFCLL
TAF
KCLL 251720Z 2518/2618 33005KT P6SM SKC
     FM252200 20004KT P6SM SKC
     FM261500 23011KT P6SM SKC=



000
FTUS44 KHGX 251720
TAFHOU
TAF
KHOU 251720Z 2518/2618 35007KT P6SM BKN150
     FM260000 VRB03KT P6SM SKC
     FM261500 23010KT P6SM SKC=



000
FTUS44 KHGX 251720
TAFCXO
TAF
KCXO 251720Z 2518/2618 34005KT P6SM SKC
     FM252200 00000KT P6SM SKC
     FM261500 23010KT P6SM SKC=



000
FTUS44 KHGX 251720
TAFIAH
TAF
KIAH 251720Z 2518/2624 35005KT P6SM BKN180
     FM260000 VRB03KT P6SM SKC
     FM261500 23009KT P6SM SKC
     FM262300 VRB03KT P6SM SKC=



000
FTUS44 KHGX 251720
TAFCXO
TAF
KCXO 251720Z 2518/2618 34005KT P6SM SKC
     FM252200 00000KT P6SM SKC
     FM261500 23010KT P6SM SKC=



000
FTUS44 KHGX 251720
TAFSGR
TAF
KSGR 251720Z 2518/2618 35005KT P6SM OVC150
     FM252300 VRB03KT P6SM SKC
     FM261500 23009KT P6SM SKC=



000
FTUS44 KHGX 251720
TAFSGR
TAF
KSGR 251720Z 2518/2618 35005KT P6SM OVC150
     FM252300 VRB03KT P6SM SKC
     FM261500 23009KT P6SM SKC=



000
FTUS44 KHGX 251720
TAFCLL
TAF
KCLL 251720Z 2518/2618 33005KT P6SM SKC
     FM252200 20004KT P6SM SKC
     FM261500 23011KT P6SM SKC=



000
FTUS44 KHGX 251720
TAFHOU
TAF
KHOU 251720Z 2518/2618 35007KT P6SM BKN150
     FM260000 VRB03KT P6SM SKC
     FM261500 23010KT P6SM SKC=



000
FTUS44 KHGX 251720
TAFGLS
TAF
KGLS 251720Z 2518/2618 02011KT P6SM BKN120
     FM260000 30006KT P6SM SKC
     FM260900 22007KT P6SM SKC=



000
FTUS44 KHGX 251720
TAFIAH
TAF
KIAH 251720Z 2518/2624 35005KT P6SM BKN180
     FM260000 VRB03KT P6SM SKC
     FM261500 23009KT P6SM SKC
     FM262300 VRB03KT P6SM SKC=



000
FTUS44 KHGX 251720
TAFLBX
TAF
KLBX 251720Z 2518/2618 36008KT P6SM OVC150
     FM252300 00000KT P6SM SKC
     FM261500 23010KT P6SM SKC=



000
FTUS44 KHGX 251500 AAA
TAFIAH
TAF AMD
KIAH 251500Z 2515/2618 34005KT P6SM BKN150
     FM252100 VRB03KT P6SM FEW250
     FM261500 23008KT P6SM SKC=



000
FTUS44 KHGX 251500 AAA
TAFHOU
TAF AMD
KHOU 251500Z 2515/2612 35007KT P6SM BKN150
     FM252100 VRB03KT P6SM FEW250=



000
FTUS44 KHGX 251500 AAA
TAFIAH
TAF AMD
KIAH 251500Z 2515/2618 34005KT P6SM BKN150
     FM252100 VRB03KT P6SM FEW250
     FM261500 23008KT P6SM SKC=



000
FTUS44 KHGX 251500 AAA
TAFHOU
TAF AMD
KHOU 251500Z 2515/2612 35007KT P6SM BKN150
     FM252100 VRB03KT P6SM FEW250=



000
FTUS44 KHGX 251124
TAFSGR
TAF
KSGR 251124Z 2512/2612 35003KT P6SM OVC250
     FM252100 VRB03KT P6SM SCT250=



000
FTUS44 KHGX 251124
TAFIAH
TAF
KIAH 251124Z 2512/2618 34005KT P6SM BKN250
     FM252100 VRB03KT P6SM FEW250
     FM261500 23008KT P6SM SKC=



000
FTUS44 KHGX 251124
TAFCXO
TAF
KCXO 251124Z 2512/2612 34004KT P6SM BKN250
     FM252200 00000KT P6SM SKC=



000
FTUS44 KHGX 251124
TAFGLS
TAF
KGLS 251124Z 2512/2612 02013KT P6SM OVC250
     FM260000 30006KT P6SM SCT250
     FM260900 22004KT P6SM SKC=



000
FTUS44 KHGX 251124
TAFLBX
TAF
KLBX 251124Z 2512/2612 36005KT P6SM OVC250
     FM252300 00000KT P6SM SCT250=



000
FTUS44 KHGX 251124
TAFUTS
TAF
KUTS 251124Z 2512/2612 33004KT P6SM BKN250
     FM252200 27004KT P6SM SKC=



000
FTUS44 KHGX 251124
TAFCLL
TAF
KCLL 251124Z 2512/2612 34005KT P6SM BKN250
     FM252200 27004KT P6SM SKC=



000
FTUS44 KHGX 251124
TAFHOU
TAF
KHOU 251124Z 2512/2612 35006KT P6SM BKN250
     FM252100 VRB03KT P6SM FEW250=



000
FTUS44 KHGX 251124
TAFLBX
TAF
KLBX 251124Z 2512/2612 36005KT P6SM OVC250
     FM252300 00000KT P6SM SCT250=



000
FTUS44 KHGX 251124
TAFCXO
TAF
KCXO 251124Z 2512/2612 34004KT P6SM BKN250
     FM252200 00000KT P6SM SKC=



000
FTUS44 KHGX 251124
TAFGLS
TAF
KGLS 251124Z 2512/2612 02013KT P6SM OVC250
     FM260000 30006KT P6SM SCT250
     FM260900 22004KT P6SM SKC=



000
FTUS44 KHGX 251124
TAFUTS
TAF
KUTS 251124Z 2512/2612 33004KT P6SM BKN250
     FM252200 27004KT P6SM SKC=



000
FTUS44 KHGX 251124
TAFIAH
TAF
KIAH 251124Z 2512/2618 34005KT P6SM BKN250
     FM252100 VRB03KT P6SM FEW250
     FM261500 23008KT P6SM SKC=



000
FTUS44 KHGX 251124
TAFSGR
TAF
KSGR 251124Z 2512/2612 35003KT P6SM OVC250
     FM252100 VRB03KT P6SM SCT250=



000
FTUS44 KHGX 251124
TAFHOU
TAF
KHOU 251124Z 2512/2612 35006KT P6SM BKN250
     FM252100 VRB03KT P6SM FEW250=



000
FTUS44 KHGX 251124
TAFCLL
TAF
KCLL 251124Z 2512/2612 34005KT P6SM BKN250
     FM252200 27004KT P6SM SKC=



000
FTUS44 KHGX 251058 AAA
TAFHOU
TAF AMD
KHOU 251058Z 2511/2606 35006KT P6SM BKN250
     FM252100 VRB03KT P6SM FEW250=



000
FTUS44 KHGX 251058 AAA
TAFIAH
TAF AMD
KIAH 251058Z 2511/2612 34005KT P6SM BKN250
     FM252100 VRB03KT P6SM FEW250
     FM260700 23003KT P6SM SKC=



000
FTUS44 KHGX 251058 AAA
TAFIAH
TAF AMD
KIAH 251058Z 2511/2612 34005KT P6SM BKN250
     FM252100 VRB03KT P6SM FEW250
     FM260700 23003KT P6SM SKC=



000
FTUS44 KHGX 251058 AAA
TAFHOU
TAF AMD
KHOU 251058Z 2511/2606 35006KT P6SM BKN250
     FM252100 VRB03KT P6SM FEW250=



000
FTUS44 KHGX 251058 AAA
TAFHOU
TAF AMD
KHOU 251058Z 2511/2606 35006KT P6SM BKN250
     FM252100 VRB03KT P6SM FEW250=



000
FTUS44 KHGX 251058 AAA
TAFIAH
TAF AMD
KIAH 251058Z 2511/2612 34005KT P6SM BKN250
     FM252100 VRB03KT P6SM FEW250
     FM260700 23003KT P6SM SKC=



000
FTUS44 KHGX 251058 AAA
TAFHOU
TAF AMD
KHOU 251058Z 2511/2606 35006KT P6SM BKN250
     FM252100 VRB03KT P6SM FEW250=



000
FTUS44 KHGX 251058 AAA
TAFIAH
TAF AMD
KIAH 251058Z 2511/2612 34005KT P6SM BKN250
     FM252100 VRB03KT P6SM FEW250
     FM260700 23003KT P6SM SKC=



000
FTUS44 KHGX 250540
TAFHOU
TAF
KHOU 250540Z 2506/2606 35006KT P6SM SKC
     FM252100 VRB03KT P6SM SKC=



000
FTUS44 KHGX 250540
TAFCXO
TAF
KCXO 250540Z 2506/2606 34004KT P6SM SKC
     FM252100 VRB03KT P6SM SKC=



000
FTUS44 KHGX 250540
TAFUTS
TAF
KUTS 250540Z 2506/2606 33004KT P6SM SKC
     FM252100 27006KT P6SM SKC=



000
FTUS44 KHGX 250540
TAFCLL
TAF
KCLL 250540Z 2506/2606 34005KT P6SM SKC
     FM252100 26005KT P6SM SKC=



000
FTUS44 KHGX 250540
TAFCLL
TAF
KCLL 250540Z 2506/2606 34005KT P6SM SKC
     FM252100 26005KT P6SM SKC=



000
FTUS44 KHGX 250540
TAFIAH
TAF
KIAH 250540Z 2506/2612 36004KT P6SM SKC
     FM252100 VRB03KT P6SM SKC
     FM260700 23003KT P6SM SKC=



000
FTUS44 KHGX 250540
TAFUTS
TAF
KUTS 250540Z 2506/2606 33004KT P6SM SKC
     FM252100 27006KT P6SM SKC=



000
FTUS44 KHGX 250540
TAFHOU
TAF
KHOU 250540Z 2506/2606 35006KT P6SM SKC
     FM252100 VRB03KT P6SM SKC=



000
FTUS44 KHGX 250540
TAFIAH
TAF
KIAH 250540Z 2506/2612 36004KT P6SM SKC
     FM252100 VRB03KT P6SM SKC
     FM260700 23003KT P6SM SKC=



000
FTUS44 KHGX 250540
TAFSGR
TAF
KSGR 250540Z 2506/2606 35003KT P6SM SKC
     FM252100 VRB03KT P6SM SKC=



000
FTUS44 KHGX 250540
TAFSGR
TAF
KSGR 250540Z 2506/2606 35003KT P6SM SKC
     FM252100 VRB03KT P6SM SKC=



000
FTUS44 KHGX 250540
TAFGLS
TAF
KGLS 250540Z 2506/2606 01013KT P6SM SKC
     FM260000 30006KT P6SM SKC=



000
FTUS44 KHGX 250540
TAFCXO
TAF
KCXO 250540Z 2506/2606 34004KT P6SM SKC
     FM252100 VRB03KT P6SM SKC=



000
FTUS44 KHGX 250540
TAFLBX
TAF
KLBX 250540Z 2506/2606 36005KT P6SM SKC
     FM252100 VRB03KT P6SM SKC=



000
FTUS44 KHGX 250540
TAFLBX
TAF
KLBX 250540Z 2506/2606 36005KT P6SM SKC
     FM252100 VRB03KT P6SM SKC=



000
FTUS44 KHGX 250540
TAFGLS
TAF
KGLS 250540Z 2506/2606 01013KT P6SM SKC
     FM260000 30006KT P6SM SKC=



000
FTUS44 KHGX 250300 AAA
TAFHOU
TAF AMD
KHOU 250300Z 2503/2524 35005KT P6SM FEW150 SCT250=



000
FTUS44 KHGX 250300 AAA
TAFIAH
TAF AMD
KIAH 250300Z 2503/2606 34005KT P6SM FEW150 SCT250
     FM251200 VRB04KT P6SM SKC=



000
FTUS44 KHGX 250300 AAA
TAFHOU
TAF AMD
KHOU 250300Z 2503/2524 35005KT P6SM FEW150 SCT250=



000
FTUS44 KHGX 250300 AAA
TAFIAH
TAF AMD
KIAH 250300Z 2503/2606 34005KT P6SM FEW150 SCT250
     FM251200 VRB04KT P6SM SKC=



    US Dept of Commerce
    National Oceanic and Atmospheric Administration
    National Weather Service
    1325 East West Highway
    Silver Spring, MD 20910
    Page Author: NWS Internet Services Team
Disclaimer
Information Quality
Credits
Glossary
Privacy Policy
Freedom of Information Act (FOIA)
About Us
Career Opportunities